Time;durP1;ratioP1;P1;durP2;ratioP2;P2;SDS_P1;SDS_P2;PMS_P1;PMS_P2;Temp;Humidity;BMP_temperature;BMP_pressure;BME280_temperature;BME280_humidity;BME280_pressure;Samples;Min_cycle;Max_cycle;Signal;HPM_P1;HPM_P2
2022/09/14 00:00:55;;;;;;;3.58;1.40;;;;;;;18.62;100.00;95557.56;5100939;28;20200;-74
2022/09/14 00:03:22;;;;;;;4.47;1.40;;;;;;;18.74;100.00;95563.34;5091497;28;20203;-75
2022/09/14 00:05:49;;;;;;;1.63;1.10;;;;;;;18.86;100.00;95550.81;5110455;28;20192;-74
2022/09/14 00:08:18;;;;;;;4.18;1.30;;;;;;;19.06;100.00;95573.44;5109524;27;20312;-74
2022/09/14 00:10:47;;;;;;;2.28;1.40;;;;;;;19.07;100.00;95564.91;5121502;28;20213;-74
2022/09/14 00:13:15;;;;;;;3.45;1.63;;;;;;;18.96;100.00;95565.44;5095549;28;20227;-74
2022/09/14 00:15:45;;;;;;;5.18;1.67;;;;;;;18.93;100.00;95566.03;5093649;28;20226;-75
2022/09/14 00:18:12;;;;;;;3.63;1.30;;;;;;;18.99;100.00;95562.06;5102011;28;20219;-75
2022/09/14 00:20:39;;;;;;;5.22;1.45;;;;;;;18.93;100.00;95566.84;5105998;27;20190;-75
2022/09/14 00:23:06;;;;;;;2.03;1.40;;;;;;;18.87;100.00;95577.06;5113525;27;20200;-74
2022/09/14 00:25:35;;;;;;;5.00;1.37;;;;;;;18.80;100.00;95571.16;5106758;28;20196;-74
2022/09/14 00:28:02;;;;;;;2.30;1.20;;;;;;;18.76;100.00;95563.88;5103103;28;20237;-74
2022/09/14 00:30:29;;;;;;;1.73;1.10;;;;;;;18.75;100.00;95563.06;5095178;28;20222;-74
2022/09/14 00:32:57;;;;;;;2.97;1.57;;;;;;;18.65;100.00;95563.22;5117905;27;20229;-75
2022/09/14 00:35:24;;;;;;;2.87;1.67;;;;;;;18.69;100.00;95569.72;5106124;27;20224;-75
2022/09/14 00:37:51;;;;;;;4.80;1.70;;;;;;;18.69;100.00;95563.44;5111512;27;20214;-74
2022/09/14 00:40:19;;;;;;;1.53;1.27;;;;;;;18.73;100.00;95562.53;5122644;27;20267;-75
2022/09/14 00:42:47;;;;;;;2.03;1.45;;;;;;;18.74;100.00;95563.34;5110161;27;20307;-75
2022/09/14 00:45:18;;;;;;;3.70;1.60;;;;;;;18.71;100.00;95570.25;5113349;27;20204;-75
2022/09/14 00:47:48;;;;;;;2.53;1.50;;;;;;;18.71;100.00;95561.25;5095072;27;20199;-75
2022/09/14 00:50:15;;;;;;;2.93;1.40;;;;;;;18.71;100.00;95562.06;5113286;27;20195;-74
2022/09/14 00:52:47;;;;;;;3.35;1.58;;;;;;;18.70;100.00;95554.97;5109787;27;20191;-74
2022/09/14 00:55:16;;;;;;;3.37;1.40;;;;;;;18.60;100.00;95549.66;5103400;28;20329;-75
2022/09/14 00:57:46;;;;;;;4.17;1.60;;;;;;;18.55;100.00;95546.97;5097357;28;20219;-75
2022/09/14 01:00:22;;;;;;;4.83;1.63;;;;;;;18.58;100.00;95545.59;5105076;27;20210;-74
2022/09/14 01:02:49;;;;;;;2.90;1.60;;;;;;;18.49;100.00;95537.25;5107714;27;20218;-74
2022/09/14 01:05:17;;;;;;;5.30;1.30;;;;;;;18.50;100.00;95536.94;5100932;27;20196;-75
2022/09/14 01:07:56;;;;;;;2.90;1.63;;;;;;;18.50;100.00;95541.59;5097891;27;20231;-75
2022/09/14 01:10:33;;;;;;;5.10;1.30;;;;;;;18.48;100.00;95535.63;5113572;27;20210;-74
2022/09/14 01:13:13;;;;;;;4.30;1.40;;;;;;;18.49;100.00;95539.97;5099015;28;20285;-75
2022/09/14 01:15:51;;;;;;;5.27;1.50;;;;;;;18.49;100.00;95532.59;5117873;27;20214;-75
2022/09/14 01:18:23;;;;;;;3.60;1.50;;;;;;;18.50;100.00;95522.47;5122875;27;20196;-74
2022/09/14 01:20:56;;;;;;;2.73;1.30;;;;;;;18.43;100.00;95522.84;5113330;27;20218;-74
2022/09/14 01:23:30;;;;;;;3.73;1.60;;;;;;;18.43;100.00;95522.03;5095075;28;20205;-75
2022/09/14 01:26:33;;;;;;;5.43;1.30;;;;;;;18.54;100.00;95518.03;5114228;27;20274;-74
2022/09/14 01:29:06;;;;;;;1.27;1.17;;;;;;;18.52;100.00;95525.72;5121789;27;20218;-74
2022/09/14 01:31:43;;;;;;;2.27;1.40;;;;;;;18.54;100.00;95524.28;5112655;27;20211;-74
2022/09/14 01:34:16;;;;;;;1.93;1.33;;;;;;;18.59;100.00;95517.16;5096540;28;20204;-74
2022/09/14 01:36:50;;;;;;;2.40;1.50;;;;;;;18.64;100.00;95511.56;5108367;27;20513;-74
2022/09/14 01:39:19;;;;;;;2.80;1.20;;;;;;;18.68;100.00;95512.59;5113636;27;20296;-75
2022/09/14 01:41:48;;;;;;;3.17;1.17;;;;;;;18.65;100.00;95511.28;5098012;27;20258;-74
2022/09/14 01:44:21;;;;;;;1.93;1.20;;;;;;;18.62;100.00;95514.63;5099492;28;20214;-74
2022/09/14 01:46:54;;;;;;;2.15;1.25;;;;;;;18.56;100.00;95507.59;5103739;28;20230;-74
2022/09/14 01:49:26;;;;;;;1.10;1.00;;;;;;;18.58;100.00;95507.31;5100026;28;20200;-74
2022/09/14 01:51:58;;;;;;;2.87;1.17;;;;;;;18.53;100.00;95505.47;5111711;27;20273;-74
2022/09/14 01:54:30;;;;;;;1.77;1.23;;;;;;;18.50;100.00;95517.00;5112670;27;20234;-74
2022/09/14 01:57:00;;;;;;;2.33;1.40;;;;;;;18.45;100.00;95509.72;5138176;27;20238;-74
2022/09/14 01:59:34;;;;;;;1.77;1.30;;;;;;;18.55;100.00;95516.91;5097008;28;20211;-74
2022/09/14 02:02:08;;;;;;;2.23;1.23;;;;;;;18.56;100.00;95514.97;5106088;27;20307;-75
2022/09/14 02:04:41;;;;;;;8.00;1.60;;;;;;;18.48;100.00;95516.47;5104526;27;20207;-74
2022/09/14 02:07:08;;;;;;;1.75;1.30;;;;;;;18.43;100.00;95516.56;5101091;27;20272;-74
2022/09/14 02:09:35;;;;;;;5.17;1.60;;;;;;;18.41;100.00;95524.25;5104441;27;20207;-74
2022/09/14 02:12:03;;;;;;;1.60;1.30;;;;;;;18.44;100.00;95537.34;5129007;27;20522;-75
2022/09/14 02:14:32;;;;;;;4.17;1.30;;;;;;;18.48;100.00;95535.63;5094118;28;20303;-75
2022/09/14 02:16:59;;;;;;;5.80;2.27;;;;;;;18.49;100.00;95527.13;5112791;27;20235;-74
2022/09/14 02:19:30;;;;;;;4.53;1.97;;;;;;;18.56;100.00;95543.13;5100819;28;20208;-74
2022/09/14 02:21:57;;;;;;;4.10;1.50;;;;;;;18.53;100.00;95541.00;5095722;27;20211;-74
2022/09/14 02:24:24;;;;;;;1.47;1.23;;;;;;;18.45;100.00;95552.63;5125251;27;20200;-74
2022/09/14 02:26:53;;;;;;;6.20;1.70;;;;;;;18.42;100.00;95539.56;5105269;27;20256;-74
2022/09/14 02:29:21;;;;;;;3.00;1.43;;;;;;;18.39;100.00;95532.75;5100512;28;20214;-75
2022/09/14 02:32:04;;;;;;;1.30;1.20;;;;;;;18.33;100.00;95523.03;5107785;27;20203;-75
2022/09/14 02:34:42;;;;;;;4.80;1.63;;;;;;;18.34;100.00;95516.44;5107424;27;20249;-74
2022/09/14 02:37:13;;;;;;;3.90;1.60;;;;;;;18.37;100.00;95513.09;5104763;28;20297;-74
2022/09/14 02:39:47;;;;;;;4.93;1.60;;;;;;;18.40;100.00;95501.59;5104872;28;20227;-74
2022/09/14 02:42:23;;;;;;;5.00;1.60;;;;;;;18.42;100.00;95482.16;5096481;27;20204;-74
2022/09/14 02:45:01;;;;;;;5.47;1.85;;;;;;;18.41;100.00;95505.94;5095307;27;20200;-75
2022/09/14 02:47:38;;;;;;;2.00;1.53;;;;;;;18.40;100.00;95514.44;5096133;28;20204;-74
2022/09/14 02:50:14;;;;;;;2.17;1.40;;;;;;;18.39;100.00;95508.16;5112782;27;20231;-74
2022/09/14 02:52:48;;;;;;;3.30;1.60;;;;;;;18.37;100.00;95501.38;5097277;28;20280;-75
2022/09/14 02:55:20;;;;;;;4.83;1.50;;;;;;;18.35;100.00;95500.88;5096839;28;20237;-74
2022/09/14 02:58:01;;;;;;;5.43;1.73;;;;;;;18.38;100.00;95520.19;5096896;27;20278;-74
2022/09/14 03:00:30;;;;;;;2.43;1.50;;;;;;;18.37;100.00;95536.91;5110465;27;20207;-74
2022/09/14 03:02:58;;;;;;;5.33;1.40;;;;;;;18.40;100.00;95539.84;5118688;27;20183;-74
2022/09/14 03:05:26;;;;;;;2.00;1.60;;;;;;;18.40;100.00;95539.03;5124195;27;20210;-75
2022/09/14 03:07:53;;;;;;;4.30;1.50;;;;;;;18.41;100.00;95552.41;5097463;28;20208;-74
2022/09/14 03:10:20;;;;;;;1.87;1.53;;;;;;;18.41;100.00;95563.34;5095474;28;20200;-74
2022/09/14 03:12:47;;;;;;;2.33;1.70;;;;;;;18.52;100.00;95573.00;5105528;28;20289;-74
2022/09/14 03:15:14;;;;;;;3.15;1.70;;;;;;;18.55;100.00;95582.50;5096300;27;20226;-74
2022/09/14 03:17:45;;;;;;;6.17;2.00;;;;;;;18.48;100.00;95576.63;5104740;28;20323;-74
2022/09/14 03:20:14;;;;;;;3.40;1.63;;;;;;;18.41;100.00;95589.84;5111644;27;20260;-74
2022/09/14 03:22:41;;;;;;;5.07;2.43;;;;;;;18.39;100.00;95592.06;5090495;28;20211;-74
2022/09/14 03:25:09;;;;;;;3.70;1.80;;;;;;;18.36;100.00;95590.75;5098387;28;20220;-74
2022/09/14 03:27:36;;;;;;;4.97;1.80;;;;;;;18.26;100.00;95609.22;5112249;27;20206;-74
2022/09/14 03:30:03;;;;;;;4.37;1.70;;;;;;;18.26;100.00;95590.09;5091747;27;20222;-74
2022/09/14 03:32:30;;;;;;;3.23;1.93;;;;;;;18.22;100.00;95567.19;5110590;27;20208;-77
2022/09/14 03:34:58;;;;;;;6.40;2.00;;;;;;;18.22;100.00;95559.00;5111340;27;20203;-77
2022/09/14 03:37:27;;;;;;;3.50;1.60;;;;;;;18.14;100.00;95544.91;5099243;27;20195;-77
2022/09/14 03:39:54;;;;;;;3.77;1.63;;;;;;;18.15;100.00;95541.06;5107764;28;20207;-77
2022/09/14 03:42:21;;;;;;;2.00;1.70;;;;;;;18.18;100.00;95527.94;5107634;28;20208;-77
2022/09/14 03:44:48;;;;;;;3.03;1.73;;;;;;;18.24;100.00;95526.72;5094570;28;20204;-77
2022/09/14 03:47:15;;;;;;;3.30;1.70;;;;;;;18.27;100.00;95521.50;5106024;27;20204;-77
2022/09/14 03:49:42;;;;;;;1.77;1.60;;;;;;;18.35;100.00;95529.00;5116594;27;20200;-76
2022/09/14 03:52:09;;;;;;;3.53;1.77;;;;;;;18.37;100.00;95526.75;5096942;28;20204;-77
2022/09/14 03:54:38;;;;;;;3.03;2.07;;;;;;;18.32;100.00;95535.06;5093160;28;20295;-77
2022/09/14 03:57:06;;;;;;;2.17;1.83;;;;;;;18.26;100.00;95521.78;5106817;28;20278;-77
2022/09/14 03:59:33;;;;;;;2.43;1.70;;;;;;;18.25;100.00;95531.09;5096462;28;20292;-77
2022/09/14 04:02:02;;;;;;;2.93;2.10;;;;;;;18.23;100.00;95520.47;5111743;27;20275;-77
2022/09/14 04:04:29;;;;;;;3.43;2.10;;;;;;;18.22;100.00;95512.56;5112778;27;20283;-77
2022/09/14 04:06:56;;;;;;;4.23;1.80;;;;;;;18.15;100.00;95515.66;5097238;28;20234;-76
2022/09/14 04:09:23;;;;;;;3.53;1.50;;;;;;;18.05;100.00;95508.44;5092463;28;20214;-76
2022/09/14 04:11:52;;;;;;;2.00;1.70;;;;;;;18.10;100.00;95505.66;5090941;28;20361;-76
2022/09/14 04:14:19;;;;;;;2.80;1.83;;;;;;;18.12;100.00;95510.78;5100959;28;20196;-77
2022/09/14 04:16:46;;;;;;;2.17;1.80;;;;;;;18.11;100.00;95511.94;5099881;28;20322;-76
2022/09/14 04:19:13;;;;;;;2.43;1.63;;;;;;;18.04;100.00;95497.81;5103112;28;20211;-76
2022/09/14 04:21:40;;;;;;;8.17;1.93;;;;;;;18.02;100.00;95500.06;5102746;28;20221;-76
2022/09/14 04:24:07;;;;;;;2.87;1.90;;;;;;;18.00;100.00;95497.63;5091645;28;20196;-77
2022/09/14 04:26:35;;;;;;;3.83;1.90;;;;;;;17.98;100.00;95486.16;5121854;27;20199;-77
2022/09/14 04:29:04;;;;;;;2.83;1.83;;;;;;;18.06;100.00;95479.22;5099348;28;20215;-77
2022/09/14 04:31:32;;;;;;;2.87;1.50;;;;;;;18.14;100.00;95473.88;5109464;28;20204;-77
2022/09/14 04:33:59;;;;;;;1.80;1.50;;;;;;;18.26;100.00;95462.50;5095479;28;20203;-76
2022/09/14 04:36:29;;;;;;;4.47;1.60;;;;;;;18.32;100.00;95476.88;5107956;28;20255;-76
2022/09/14 04:38:58;;;;;;;2.77;1.77;;;;;;;18.34;100.00;95467.25;5095516;28;20214;-76
2022/09/14 04:41:27;;;;;;;2.67;1.67;;;;;;;18.40;100.00;95468.78;5098090;28;20264;-77
2022/09/14 04:43:55;;;;;;;5.00;1.90;;;;;;;18.40;100.00;95459.78;5112935;28;20196;-76
2022/09/14 04:46:26;;;;;;;3.53;2.00;;;;;;;18.41;100.00;95455.94;5097389;28;20297;-77
2022/09/14 04:48:54;;;;;;;3.97;1.73;;;;;;;18.37;100.00;95465.84;5098187;28;20223;-77
2022/09/14 04:51:23;;;;;;;2.57;1.70;;;;;;;18.42;100.00;95463.03;5092204;28;20196;-77
2022/09/14 04:53:52;;;;;;;2.00;1.80;;;;;;;18.41;100.00;95447.72;5105621;28;20239;-77
2022/09/14 04:56:21;;;;;;;2.10;1.50;;;;;;;18.40;100.00;95457.03;5094322;28;20227;-77
2022/09/14 04:58:49;;;;;;;4.17;1.83;;;;;;;18.41;100.00;95451.28;5111400;28;20200;-77
2022/09/14 05:01:18;;;;;;;5.03;2.20;;;;;;;18.42;100.00;95452.09;5091644;28;20210;-77
2022/09/14 05:03:46;;;;;;;4.20;1.87;;;;;;;18.43;100.00;95453.72;5093290;28;20256;-77
2022/09/14 05:06:15;;;;;;;2.80;1.70;;;;;;;18.36;100.00;95447.84;5098086;28;20199;-77
2022/09/14 05:08:43;;;;;;;2.93;1.93;;;;;;;18.35;100.00;95451.69;5103596;28;20330;-77
2022/09/14 05:11:14;;;;;;;3.80;1.77;;;;;;;18.36;100.00;95461.50;5114736;27;20212;-77
2022/09/14 05:13:41;;;;;;;3.45;2.08;;;;;;;18.35;100.00;95457.97;5117192;27;20236;-77
2022/09/14 05:16:09;;;;;;;3.73;1.97;;;;;;;18.30;100.00;95460.75;5106631;27;20223;-77
2022/09/14 05:18:37;;;;;;;4.47;1.90;;;;;;;18.24;100.00;95459.25;5095264;27;20208;-77
2022/09/14 05:21:07;;;;;;;4.10;2.30;;;;;;;18.27;100.00;95463.31;5100537;28;20222;-77
2022/09/14 05:23:35;;;;;;;2.40;1.70;;;;;;;18.24;100.00;95464.69;5100756;27;20208;-77
2022/09/14 05:26:02;;;;;;;4.03;2.20;;;;;;;18.18;100.00;95465.09;5120343;27;20365;-76
2022/09/14 05:28:29;;;;;;;5.10;2.40;;;;;;;18.19;100.00;95466.72;5098910;27;20353;-77
2022/09/14 05:30:57;;;;;;;4.27;2.10;;;;;;;18.23;100.00;95467.72;5097761;27;20257;-77
2022/09/14 05:33:24;;;;;;;3.47;2.00;;;;;;;18.24;100.00;95466.63;5107825;27;20211;-77
2022/09/14 05:35:51;;;;;;;5.87;2.20;;;;;;;18.22;100.00;95471.56;5106300;27;20215;-77
2022/09/14 05:38:20;;;;;;;3.30;2.17;;;;;;;18.22;100.00;95466.09;5106147;27;20219;-76
2022/09/14 05:40:47;;;;;;;5.23;2.30;;;;;;;18.22;100.00;95468.84;5102837;27;20223;-77
2022/09/14 05:43:14;;;;;;;5.67;2.53;;;;;;;18.24;100.00;95474.81;5123777;27;20216;-77
2022/09/14 05:45:41;;;;;;;2.40;1.87;;;;;;;18.28;100.00;95475.84;5108515;27;20241;-76
2022/09/14 05:48:08;;;;;;;3.17;2.03;;;;;;;18.36;100.00;95469.69;5110256;27;20214;-76
2022/09/14 05:50:35;;;;;;;4.13;2.17;;;;;;;18.32;100.00;95463.19;5103690;28;20204;-77
2022/09/14 05:53:02;;;;;;;5.90;2.63;;;;;;;18.31;100.00;95459.66;5093052;28;20208;-77
2022/09/14 05:55:30;;;;;;;2.93;2.50;;;;;;;18.25;100.00;95460.03;5099477;27;20196;-77
2022/09/14 05:57:57;;;;;;;2.83;2.33;;;;;;;18.26;100.00;95450.75;5106365;27;20220;-77
2022/09/14 06:00:24;;;;;;;6.30;2.33;;;;;;;18.27;100.00;95447.72;5103253;27;20261;-76
2022/09/14 06:02:54;;;;;;;3.10;2.37;;;;;;;18.29;100.00;95447.41;5127299;27;20198;-77
2022/09/14 06:05:24;;;;;;;4.77;2.23;;;;;;;18.30;100.00;95438.91;5101016;27;20203;-76
2022/09/14 06:07:52;;;;;;;3.83;2.10;;;;;;;18.31;100.00;95432.31;5114135;27;20238;-77
2022/09/14 06:10:20;;;;;;;4.43;2.30;;;;;;;18.37;100.00;95430.34;5117979;27;20200;-77
2022/09/14 06:12:49;;;;;;;3.27;2.50;;;;;;;18.40;100.00;95436.00;5122710;27;20256;-76
2022/09/14 06:15:16;;;;;;;2.80;2.47;;;;;;;18.44;100.00;95452.59;5108167;28;20220;-77
2022/09/14 06:17:43;;;;;;;3.93;2.40;;;;;;;18.44;100.00;95453.41;5099582;28;20232;-77
2022/09/14 06:20:11;;;;;;;5.17;3.00;;;;;;;18.48;100.00;95461.81;5100246;27;20207;-77
2022/09/14 06:22:38;;;;;;;4.87;2.40;;;;;;;18.52;100.00;95471.03;5099598;27;20214;-77
2022/09/14 06:25:06;;;;;;;3.80;2.57;;;;;;;18.51;100.00;95474.88;5124267;27;20203;-76
2022/09/14 06:27:33;;;;;;;4.93;2.70;;;;;;;18.52;100.00;95477.31;5123465;27;20202;-77
2022/09/14 06:30:02;;;;;;;4.23;2.33;;;;;;;18.53;100.00;95476.22;5112941;27;20192;-77
2022/09/14 06:32:31;;;;;;;6.57;2.90;;;;;;;18.57;100.00;95481.91;5095150;28;20230;-77
2022/09/14 06:34:58;;;;;;;9.00;3.20;;;;;;;18.57;100.00;95483.81;5096506;28;20300;-77
2022/09/14 06:37:25;;;;;;;5.90;2.60;;;;;;;18.57;100.00;95475.63;5094720;27;20215;-77
2022/09/14 06:39:52;;;;;;;6.63;3.40;;;;;;;18.67;100.00;95473.50;5107492;27;20200;-76
2022/09/14 06:42:19;;;;;;;5.05;2.50;;;;;;;18.71;100.00;95469.06;5092143;27;20208;-77
2022/09/14 06:44:51;;;;;;;5.07;2.63;;;;;;;18.80;100.00;95488.28;5112581;27;20205;-76
2022/09/14 06:47:20;;;;;;;3.40;2.30;;;;;;;18.74;100.00;95490.31;5111417;27;20241;-76
2022/09/14 06:49:48;;;;;;;4.70;2.30;;;;;;;18.77;100.00;95488.91;5114546;27;20220;-76
2022/09/14 06:52:16;;;;;;;5.43;2.70;;;;;;;18.79;100.00;95484.78;5123846;27;20200;-77
2022/09/14 06:54:43;;;;;;;5.05;2.65;;;;;;;18.80;100.00;95488.28;5096218;27;20196;-77
2022/09/14 06:57:10;;;;;;;4.50;2.55;;;;;;;18.84;100.00;95483.84;5112873;27;20228;-76
2022/09/14 06:59:37;;;;;;;6.65;2.80;;;;;;;18.88;100.00;95493.09;5098353;27;20290;-77
2022/09/14 07:02:04;;;;;;;4.90;2.78;;;;;;;18.95;100.00;95511.81;5113083;27;20324;-76
2022/09/14 07:04:32;;;;;;;4.93;2.65;;;;;;;19.01;100.00;95503.22;5097399;28;20196;-76
2022/09/14 07:07:00;;;;;;;7.25;2.80;;;;;;;19.09;100.00;95509.91;5106115;27;20203;-76
2022/09/14 07:09:26;;;;;;;5.30;2.80;;;;;;;19.19;100.00;95512.44;5097527;27;20192;-76
2022/09/14 07:11:54;;;;;;;6.82;2.92;;;;;;;19.25;100.00;95509.28;5099681;27;20196;-76
2022/09/14 07:14:21;;;;;;;6.18;2.92;;;;;;;19.35;100.00;95511.00;5108250;27;20207;-78
2022/09/14 07:16:48;;;;;;;8.40;2.97;;;;;;;19.40;100.00;95508.13;5103360;27;20262;-77
2022/09/14 07:19:17;;;;;;;5.85;2.85;;;;;;;19.48;100.00;95514.88;5099377;27;20231;-76
2022/09/14 07:21:46;;;;;;;7.05;3.00;;;;;;;19.60;100.00;95529.66;5101303;27;20204;-76
2022/09/14 07:24:14;;;;;;;9.63;3.58;;;;;;;19.69;100.00;95537.13;5094346;27;20191;-77
2022/09/14 07:26:42;;;;;;;9.77;3.22;;;;;;;19.79;100.00;95534.19;5105966;27;20384;-77
2022/09/14 07:29:12;;;;;;;10.77;4.07;;;;;;;19.95;100.00;95544.47;5094659;27;20447;-77
2022/09/14 07:31:42;;;;;;;6.32;3.05;;;;;;;19.98;100.00;95543.88;5107965;27;20200;-77
2022/09/14 07:34:09;;;;;;;6.25;3.00;;;;;;;19.99;100.00;95548.22;5092938;27;20222;-76
2022/09/14 07:36:37;;;;;;;6.03;2.78;;;;;;;20.05;100.00;95551.66;5107580;28;20349;-77
2022/09/14 07:39:08;;;;;;;5.10;2.72;;;;;;;20.08;100.00;95551.03;5095083;28;20215;-77
2022/09/14 07:41:36;;;;;;;5.68;2.70;;;;;;;20.00;100.00;95544.34;5114320;27;20211;-76
2022/09/14 07:44:05;;;;;;;6.85;2.83;;;;;;;20.00;100.00;95557.25;5095250;28;20233;-77
2022/09/14 07:46:37;;;;;;;6.15;2.70;;;;;;;20.11;100.00;95572.34;5092862;28;20201;-77
2022/09/14 07:49:04;;;;;;;5.03;2.55;;;;;;;20.21;100.00;95582.25;5108000;27;20261;-77
2022/09/14 07:51:33;;;;;;;4.60;2.90;;;;;;;20.28;100.00;95585.38;5106786;27;20290;-77
2022/09/14 07:54:01;;;;;;;3.92;2.35;;;;;;;20.29;100.00;95606.19;5115629;27;20207;-77
2022/09/14 07:56:29;;;;;;;7.50;2.92;;;;;;;20.31;100.00;95617.66;5111238;27;20251;-77
2022/09/14 07:58:58;;;;;;;8.80;3.05;;;;;;;20.28;100.00;95631.97;5101693;28;20257;-77
2022/09/14 08:01:28;;;;;;;4.10;2.65;;;;;;;20.28;100.00;95635.53;5094329;28;20203;-77
2022/09/14 08:03:56;;;;;;;4.88;2.45;;;;;;;20.30;100.00;95607.81;5123611;27;20207;-77
2022/09/14 08:06:25;;;;;;;6.90;2.80;;;;;;;20.13;100.00;95585.75;5120271;27;20200;-77
2022/09/14 08:08:54;;;;;;;7.07;3.10;;;;;;;20.03;100.00;95586.78;5111958;28;20207;-76
2022/09/14 08:11:23;;;;;;;8.82;2.60;;;;;;;20.08;100.00;95594.88;5120081;27;20204;-77
2022/09/14 08:13:53;;;;;;;4.15;2.35;;;;;;;20.09;100.00;95607.47;5114278;27;20236;-77
2022/09/14 08:16:21;;;;;;;4.22;2.28;;;;;;;20.03;100.00;95603.22;5113508;28;20208;-77
2022/09/14 08:18:52;;;;;;;5.38;2.50;;;;;;;20.04;100.00;95596.63;5123793;28;20268;-76
2022/09/14 08:21:19;;;;;;;4.40;2.13;;;;;;;20.15;100.00;95583.50;5123309;28;20209;-76
2022/09/14 08:23:46;;;;;;;3.28;2.40;;;;;;;20.35;100.00;95589.34;5113462;28;20264;-77
2022/09/14 08:26:15;;;;;;;5.40;3.10;;;;;;;20.51;100.00;95592.53;5113838;27;20196;-76
2022/09/14 08:28:43;;;;;;;4.88;2.20;;;;;;;20.53;100.00;95584.00;5108928;28;20231;-77
2022/09/14 08:31:13;;;;;;;8.73;2.58;;;;;;;20.41;100.00;95581.81;5111172;28;20211;-77
2022/09/14 08:33:44;;;;;;;4.13;2.60;;;;;;;20.44;100.00;95564.72;5123731;28;20199;-77
2022/09/14 08:36:14;;;;;;;3.25;2.65;;;;;;;20.46;100.00;95561.69;5109290;28;20287;-77
2022/09/14 08:38:41;;;;;;;5.85;2.30;;;;;;;20.68;100.00;95542.47;5121559;28;20227;-77
2022/09/14 08:41:18;;;;;;;3.92;2.80;;;;;;;20.92;100.00;95553.91;5118143;28;20315;-77
2022/09/14 08:43:46;;;;;;;4.10;2.45;;;;;;;21.05;100.00;95555.75;5111469;28;20238;-76
2022/09/14 08:46:28;;;;;;;3.65;2.60;;;;;;;21.23;100.00;95545.69;5115409;27;20210;-77
2022/09/14 08:48:56;;;;;;;5.07;2.35;;;;;;;21.47;100.00;95542.53;5119125;27;20215;-77
2022/09/14 08:51:23;;;;;;;4.00;2.25;;;;;;;21.60;100.00;95538.88;5126927;27;20204;-77
2022/09/14 08:53:52;;;;;;;3.60;2.15;;;;;;;21.71;100.00;95542.91;5115334;27;20208;-77
2022/09/14 08:56:24;;;;;;;6.10;2.60;;;;;;;21.76;100.00;95534.53;5122783;27;20315;-76
2022/09/14 08:59:16;;;;;;;8.63;3.03;;;;;;;21.81;100.00;95539.84;5121353;27;20254;-77
2022/09/14 09:01:54;;;;;;;5.63;2.72;;;;;;;21.64;100.00;95537.06;5123165;27;20204;-77
2022/09/14 09:04:33;;;;;;;4.75;2.30;;;;;;;21.68;100.00;95527.09;5117935;27;20211;-77
2022/09/14 09:07:08;;;;;;;5.60;2.65;;;;;;;21.78;100.00;95520.44;5113408;27;20208;-77
2022/09/14 09:09:42;;;;;;;5.68;2.40;;;;;;;21.84;100.00;95514.50;5109839;27;20211;-77
2022/09/14 09:12:15;;;;;;;5.32;2.40;;;;;;;21.89;100.00;95506.09;5121152;27;20231;-77
2022/09/14 09:14:47;;;;;;;6.18;2.50;;;;;;;21.90;100.00;95491.22;5123628;22;20303;-80
2022/09/14 09:17:20;;;;;;;5.22;2.30;;;;;;;22.01;100.00;95491.75;5065322;28;20232;-80
2022/09/14 09:19:58;;;;;;;3.90;2.30;;;;;;;22.18;100.00;95497.22;5067950;22;20201;-77
2022/09/14 09:22:30;;;;;;;4.05;2.40;;;;;;;22.33;100.00;95490.41;5082934;28;20206;-77
2022/09/14 09:24:58;;;;;;;3.25;2.17;;;;;;;22.45;95.93;95498.81;5074560;28;20215;-76
2022/09/14 09:27:26;;;;;;;5.20;2.33;;;;;;;22.53;97.93;95492.50;5079245;28;20198;-76
2022/09/14 09:29:53;;;;;;;12.52;2.55;;;;;;;22.61;97.98;95488.91;5073833;28;20206;-76
2022/09/14 09:32:24;;;;;;;5.90;2.58;;;;;;;22.68;97.70;95498.59;5059091;28;20250;-76
2022/09/14 09:35:15;;;;;;;2.60;2.40;;;;;;;22.76;96.89;95503.31;5078515;28;20232;-77
2022/09/14 09:37:57;;;;;;;3.15;2.17;;;;;;;22.78;96.54;95487.28;5057664;28;20217;-77
2022/09/14 09:40:30;;;;;;;5.60;2.40;;;;;;;22.80;96.78;95488.53;5056917;28;20201;-77
2022/09/14 09:43:08;;;;;;;3.72;2.45;;;;;;;22.79;95.00;95486.16;5062324;28;20200;-76
2022/09/14 09:45:52;;;;;;;3.05;2.20;;;;;;;22.85;94.50;95482.06;5068439;28;20201;-76
2022/09/14 09:48:24;;;;;;;3.88;2.45;;;;;;;22.89;94.99;95472.00;5060275;28;20212;-76
2022/09/14 09:50:58;;;;;;;7.68;2.63;;;;;;;22.89;94.85;95463.75;5077145;28;20296;-76
2022/09/14 09:53:25;;;;;;;3.55;2.53;;;;;;;22.91;97.38;95465.03;5066332;28;20255;-77
2022/09/14 09:55:53;;;;;;;5.22;3.40;;;;;;;23.01;97.85;95450.09;5063972;28;20204;-77
2022/09/14 09:58:29;;;;;;;5.07;2.80;;;;;;;23.10;94.57;95450.88;5057524;28;20227;-77
2022/09/14 10:00:58;;;;;;;6.30;2.67;;;;;;;23.13;93.97;95447.47;5059699;28;20259;-76
2022/09/14 10:03:31;;;;;;;4.88;2.63;;;;;;;23.14;91.28;95438.03;5063250;28;20202;-76
2022/09/14 10:06:08;;;;;;;5.57;2.75;;;;;;;23.22;91.69;95430.91;5057815;28;20201;-77
2022/09/14 10:08:42;;;;;;;3.80;2.50;;;;;;;23.23;92.96;95419.53;5064245;28;20246;-76
2022/09/14 10:11:35;;;;;;;3.60;2.63;;;;;;;23.27;95.53;95392.13;5061486;28;20239;-77
2022/09/14 10:14:03;;;;;;;7.18;2.58;;;;;;;23.26;95.13;95387.75;5066968;28;20383;-76
2022/09/14 10:16:36;;;;;;;7.72;2.47;;;;;;;23.28;96.48;95379.97;5083750;28;20225;-76
2022/09/14 10:19:13;;;;;;;5.32;3.00;;;;;;;23.30;100.00;95375.75;5077288;28;20235;-77
2022/09/14 10:22:14;;;;;;;8.45;3.63;;;;;;;23.34;100.00;95368.44;5078357;28;20264;-76
2022/09/14 10:24:53;;;;;;;7.10;2.85;;;;;;;23.36;100.00;95371.66;5088165;28;20203;-76
2022/09/14 10:27:32;;;;;;;4.43;2.95;;;;;;;23.34;100.00;95378.63;5087088;28;20231;-76
2022/09/14 10:30:04;;;;;;;5.88;3.00;;;;;;;23.31;100.00;95380.09;5096195;28;20269;-76
2022/09/14 10:32:33;;;;;;;5.88;2.90;;;;;;;23.11;100.00;95378.16;5074078;28;20216;-76
2022/09/14 10:35:03;;;;;;;6.47;3.45;;;;;;;23.10;100.00;95387.53;5085834;28;20226;-76
2022/09/14 10:37:37;;;;;;;2.90;2.67;;;;;;;23.17;100.00;95382.31;5085437;28;20236;-76
2022/09/14 10:40:15;;;;;;;5.25;2.92;;;;;;;23.11;97.32;95385.59;5073628;28;20218;-76
2022/09/14 10:42:57;;;;;;;3.42;2.75;;;;;;;23.05;97.82;95387.75;5075418;28;20213;-76
2022/09/14 10:45:30;;;;;;;6.47;3.20;;;;;;;23.09;99.53;95383.16;5090084;28;20200;-76
2022/09/14 10:48:27;;;;;;;4.32;2.55;;;;;;;23.18;99.63;95383.94;5083359;28;20258;-76
2022/09/14 10:51:06;;;;;;;6.15;2.92;;;;;;;23.23;99.74;95382.91;5080113;28;20212;-76
2022/09/14 10:53:44;;;;;;;4.57;2.90;;;;;;;23.24;100.00;95379.03;5078866;28;20209;-76
2022/09/14 10:56:17;;;;;;;9.32;3.10;;;;;;;23.30;100.00;95378.50;5096990;28;20289;-76
2022/09/14 10:59:15;;;;;;;6.45;2.60;;;;;;;23.37;100.00;95389.81;5077066;28;20227;-76
2022/09/14 11:02:05;;;;;;;4.07;2.80;;;;;;;23.36;100.00;95388.19;5087357;28;20201;-76
2022/09/14 11:04:55;;;;;;;5.18;2.80;;;;;;;23.30;100.00;95388.72;5074590;28;20226;-76
2022/09/14 11:07:32;;;;;;;5.13;2.70;;;;;;;23.29;100.00;95381.59;5084127;28;20256;-76
2022/09/14 11:10:09;;;;;;;4.32;2.70;;;;;;;23.27;97.63;95392.94;5096950;28;20287;-76
2022/09/14 11:12:42;;;;;;;3.75;2.42;;;;;;;23.28;95.38;95396.50;5082597;28;20196;-76
2022/09/14 11:15:20;;;;;;;3.10;2.10;;;;;;;23.30;93.90;95394.22;5073579;28;20231;-76
2022/09/14 11:18:08;;;;;;;8.38;2.47;;;;;;;23.43;93.14;95381.34;5074727;28;20266;-76
2022/09/14 11:20:45;;;;;;;4.47;2.70;;;;;;;23.51;91.09;95397.81;5071970;28;20293;-76
2022/09/14 11:23:30;;;;;;;4.68;2.95;;;;;;;23.62;91.80;95406.50;5081588;28;20404;-76
2022/09/14 11:26:00;;;;;;;2.13;1.95;;;;;;;23.69;91.86;95409.53;5083346;28;20224;-76
2022/09/14 11:28:37;;;;;;;4.80;2.58;;;;;;;23.65;94.44;95414.09;5071032;28;20224;-76
2022/09/14 11:31:09;;;;;;;3.95;2.67;;;;;;;23.59;93.49;95407.97;5072513;28;20251;-76
2022/09/14 11:33:41;;;;;;;4.57;2.45;;;;;;;23.46;92.83;95405.47;5077561;28;20191;-76
2022/09/14 11:36:15;;;;;;;5.03;2.30;;;;;;;23.35;100.00;95405.84;5092786;28;20207;-76
2022/09/14 11:38:50;;;;;;;3.70;2.50;;;;;;;23.32;100.00;95398.25;5079443;28;20232;-76
2022/09/14 11:41:25;;;;;;;5.28;2.67;;;;;;;23.31;99.52;95407.66;5071640;28;20207;-76
2022/09/14 11:43:57;;;;;;;3.58;2.35;;;;;;;23.28;94.05;95402.81;5070936;28;20306;-76